sensor_id;sensor_type;location;lat;lon;timestamp;P1;durP1;ratioP1;P2;durP2;ratioP2
14165;SDS011;7162;52.422;13.754;2023-03-05T00:00:14;5.33;;;2.83;;
14165;SDS011;7162;52.422;13.754;2023-03-05T00:02:41;21.80;;;8.93;;
14165;SDS011;7162;52.422;13.754;2023-03-05T00:05:08;18.13;;;7.20;;
14165;SDS011;7162;52.422;13.754;2023-03-05T00:07:35;8.33;;;2.50;;
14165;SDS011;7162;52.422;13.754;2023-03-05T00:10:03;11.30;;;4.07;;
14165;SDS011;7162;52.422;13.754;2023-03-05T00:12:31;15.67;;;3.77;;
14165;SDS011;7162;52.422;13.754;2023-03-05T00:14:58;14.97;;;4.77;;
14165;SDS011;7162;52.422;13.754;2023-03-05T00:17:25;12.13;;;4.40;;
14165;SDS011;7162;52.422;13.754;2023-03-05T00:19:54;9.60;;;2.37;;
14165;SDS011;7162;52.422;13.754;2023-03-05T00:22:21;15.10;;;2.53;;
14165;SDS011;7162;52.422;13.754;2023-03-05T00:24:49;4.97;;;1.30;;
14165;SDS011;7162;52.422;13.754;2023-03-05T00:27:16;9.97;;;2.10;;
14165;SDS011;7162;52.422;13.754;2023-03-05T00:29:44;3.07;;;1.40;;
14165;SDS011;7162;52.422;13.754;2023-03-05T00:32:12;2.30;;;1.50;;
14165;SDS011;7162;52.422;13.754;2023-03-05T00:34:39;3.20;;;1.60;;
14165;SDS011;7162;52.422;13.754;2023-03-05T00:37:06;5.27;;;1.23;;
14165;SDS011;7162;52.422;13.754;2023-03-05T00:39:33;6.37;;;1.70;;
14165;SDS011;7162;52.422;13.754;2023-03-05T00:42:01;6.50;;;1.47;;
14165;SDS011;7162;52.422;13.754;2023-03-05T00:44:28;4.43;;;1.20;;
14165;SDS011;7162;52.422;13.754;2023-03-05T00:46:57;4.30;;;1.30;;
14165;SDS011;7162;52.422;13.754;2023-03-05T00:49:24;7.97;;;1.70;;
14165;SDS011;7162;52.422;13.754;2023-03-05T00:51:51;2.70;;;0.93;;
14165;SDS011;7162;52.422;13.754;2023-03-05T00:54:18;6.00;;;1.10;;
14165;SDS011;7162;52.422;13.754;2023-03-05T00:56:46;7.83;;;1.53;;
14165;SDS011;7162;52.422;13.754;2023-03-05T00:59:13;4.43;;;1.27;;
14165;SDS011;7162;52.422;13.754;2023-03-05T01:01:40;12.57;;;1.70;;
14165;SDS011;7162;52.422;13.754;2023-03-05T01:04:08;5.90;;;1.30;;
14165;SDS011;7162;52.422;13.754;2023-03-05T01:06:35;10.53;;;1.63;;
14165;SDS011;7162;52.422;13.754;2023-03-05T01:09:06;1.77;;;1.27;;
14165;SDS011;7162;52.422;13.754;2023-03-05T01:11:33;8.60;;;1.10;;
14165;SDS011;7162;52.422;13.754;2023-03-05T01:14:03;3.47;;;1.10;;
14165;SDS011;7162;52.422;13.754;2023-03-05T01:16:30;3.87;;;1.80;;
14165;SDS011;7162;52.422;13.754;2023-03-05T01:18:57;2.07;;;1.13;;
14165;SDS011;7162;52.422;13.754;2023-03-05T01:21:26;1.27;;;1.07;;
14165;SDS011;7162;52.422;13.754;2023-03-05T01:23:53;6.03;;;1.10;;
14165;SDS011;7162;52.422;13.754;2023-03-05T01:26:19;6.53;;;1.30;;
14165;SDS011;7162;52.422;13.754;2023-03-05T01:28:46;2.97;;;1.20;;
14165;SDS011;7162;52.422;13.754;2023-03-05T01:31:13;3.13;;;0.83;;
14165;SDS011;7162;52.422;13.754;2023-03-05T01:33:40;3.53;;;1.50;;
14165;SDS011;7162;52.422;13.754;2023-03-05T01:36:08;3.33;;;1.13;;
14165;SDS011;7162;52.422;13.754;2023-03-05T01:38:38;3.53;;;0.80;;
14165;SDS011;7162;52.422;13.754;2023-03-05T01:41:05;5.00;;;1.00;;
14165;SDS011;7162;52.422;13.754;2023-03-05T01:43:32;5.53;;;1.83;;
14165;SDS011;7162;52.422;13.754;2023-03-05T01:48:51;4.87;;;1.10;;
14165;SDS011;7162;52.422;13.754;2023-03-05T01:51:20;4.13;;;0.90;;
14165;SDS011;7162;52.422;13.754;2023-03-05T01:53:49;2.60;;;1.33;;
14165;SDS011;7162;52.422;13.754;2023-03-05T01:56:17;7.40;;;1.83;;
14165;SDS011;7162;52.422;13.754;2023-03-05T01:58:44;5.83;;;1.00;;
14165;SDS011;7162;52.422;13.754;2023-03-05T02:01:11;9.80;;;1.07;;
14165;SDS011;7162;52.422;13.754;2023-03-05T02:03:38;8.10;;;1.20;;
14165;SDS011;7162;52.422;13.754;2023-03-05T02:06:06;1.67;;;1.07;;
14165;SDS011;7162;52.422;13.754;2023-03-05T02:08:33;6.90;;;0.83;;
14165;SDS011;7162;52.422;13.754;2023-03-05T02:11:02;2.60;;;1.20;;
14165;SDS011;7162;52.422;13.754;2023-03-05T02:13:30;5.90;;;0.90;;
14165;SDS011;7162;52.422;13.754;2023-03-05T02:15:59;2.43;;;1.00;;
14165;SDS011;7162;52.422;13.754;2023-03-05T02:18:27;8.30;;;1.10;;
14165;SDS011;7162;52.422;13.754;2023-03-05T02:20:59;1.40;;;0.80;;
14165;SDS011;7162;52.422;13.754;2023-03-05T02:23:27;8.80;;;1.80;;
14165;SDS011;7162;52.422;13.754;2023-03-05T02:25:55;4.97;;;1.03;;
14165;SDS011;7162;52.422;13.754;2023-03-05T02:28:23;1.17;;;0.63;;
14165;SDS011;7162;52.422;13.754;2023-03-05T02:30:52;1.50;;;0.80;;
14165;SDS011;7162;52.422;13.754;2023-03-05T02:33:19;1.60;;;0.80;;
14165;SDS011;7162;52.422;13.754;2023-03-05T02:35:46;3.37;;;1.43;;
14165;SDS011;7162;52.422;13.754;2023-03-05T02:38:16;1.77;;;0.80;;
14165;SDS011;7162;52.422;13.754;2023-03-05T02:40:43;9.27;;;1.07;;
14165;SDS011;7162;52.422;13.754;2023-03-05T02:43:10;2.03;;;0.70;;
14165;SDS011;7162;52.422;13.754;2023-03-05T02:45:37;9.63;;;1.00;;
14165;SDS011;7162;52.422;13.754;2023-03-05T02:48:05;5.63;;;1.10;;
14165;SDS011;7162;52.422;13.754;2023-03-05T02:50:32;3.23;;;0.70;;
14165;SDS011;7162;52.422;13.754;2023-03-05T02:52:59;7.67;;;1.30;;
14165;SDS011;7162;52.422;13.754;2023-03-05T02:55:28;2.90;;;0.83;;
14165;SDS011;7162;52.422;13.754;2023-03-05T02:57:55;5.17;;;0.97;;
14165;SDS011;7162;52.422;13.754;2023-03-05T03:00:22;0.50;;;0.50;;
14165;SDS011;7162;52.422;13.754;2023-03-05T03:02:50;0.60;;;0.53;;
14165;SDS011;7162;52.422;13.754;2023-03-05T03:05:17;3.80;;;0.87;;
14165;SDS011;7162;52.422;13.754;2023-03-05T03:07:44;1.10;;;0.50;;
14165;SDS011;7162;52.422;13.754;2023-03-05T03:10:11;8.20;;;0.63;;
14165;SDS011;7162;52.422;13.754;2023-03-05T03:12:40;5.27;;;1.10;;
14165;SDS011;7162;52.422;13.754;2023-03-05T03:15:08;1.40;;;0.63;;
14165;SDS011;7162;52.422;13.754;2023-03-05T03:17:36;0.77;;;0.77;;
14165;SDS011;7162;52.422;13.754;2023-03-05T03:20:09;1.97;;;0.70;;
14165;SDS011;7162;52.422;13.754;2023-03-05T03:22:38;1.17;;;0.70;;
14165;SDS011;7162;52.422;13.754;2023-03-05T03:25:05;5.93;;;0.80;;
14165;SDS011;7162;52.422;13.754;2023-03-05T03:27:33;4.93;;;0.70;;
14165;SDS011;7162;52.422;13.754;2023-03-05T03:30:01;4.40;;;1.17;;
14165;SDS011;7162;52.422;13.754;2023-03-05T03:32:29;1.40;;;1.30;;
14165;SDS011;7162;52.422;13.754;2023-03-05T03:34:56;4.53;;;0.90;;
14165;SDS011;7162;52.422;13.754;2023-03-05T03:37:23;16.43;;;0.97;;
14165;SDS011;7162;52.422;13.754;2023-03-05T03:39:50;3.03;;;0.70;;
14165;SDS011;7162;52.422;13.754;2023-03-05T03:42:17;1.10;;;0.60;;
14165;SDS011;7162;52.422;13.754;2023-03-05T03:44:44;5.47;;;1.10;;
14165;SDS011;7162;52.422;13.754;2023-03-05T03:47:13;0.80;;;0.80;;
14165;SDS011;7162;52.422;13.754;2023-03-05T03:49:39;1.07;;;0.50;;
14165;SDS011;7162;52.422;13.754;2023-03-05T03:52:07;1.20;;;0.67;;
14165;SDS011;7162;52.422;13.754;2023-03-05T03:54:34;19.03;;;1.67;;
14165;SDS011;7162;52.422;13.754;2023-03-05T03:57:01;3.93;;;0.83;;
14165;SDS011;7162;52.422;13.754;2023-03-05T03:59:28;3.70;;;0.80;;
14165;SDS011;7162;52.422;13.754;2023-03-05T04:01:55;4.10;;;0.77;;
14165;SDS011;7162;52.422;13.754;2023-03-05T04:04:23;1.07;;;0.70;;
14165;SDS011;7162;52.422;13.754;2023-03-05T04:06:52;3.13;;;1.10;;
14165;SDS011;7162;52.422;13.754;2023-03-05T04:09:19;13.83;;;1.23;;
14165;SDS011;7162;52.422;13.754;2023-03-05T04:11:46;2.23;;;1.27;;
14165;SDS011;7162;52.422;13.754;2023-03-05T04:14:14;0.93;;;0.70;;
14165;SDS011;7162;52.422;13.754;2023-03-05T04:16:41;1.27;;;0.77;;
14165;SDS011;7162;52.422;13.754;2023-03-05T04:19:08;5.60;;;1.20;;
14165;SDS011;7162;52.422;13.754;2023-03-05T04:21:36;2.23;;;0.67;;
14165;SDS011;7162;52.422;13.754;2023-03-05T04:24:04;0.50;;;0.50;;
14165;SDS011;7162;52.422;13.754;2023-03-05T04:26:32;3.13;;;0.63;;
14165;SDS011;7162;52.422;13.754;2023-03-05T04:28:59;1.43;;;0.70;;
14165;SDS011;7162;52.422;13.754;2023-03-05T04:31:26;1.40;;;0.90;;
14165;SDS011;7162;52.422;13.754;2023-03-05T04:33:53;1.10;;;0.70;;
14165;SDS011;7162;52.422;13.754;2023-03-05T04:36:20;9.63;;;1.03;;
14165;SDS011;7162;52.422;13.754;2023-03-05T04:38:48;6.10;;;0.80;;
14165;SDS011;7162;52.422;13.754;2023-03-05T04:41:15;5.53;;;1.00;;
14165;SDS011;7162;52.422;13.754;2023-03-05T04:43:42;9.17;;;1.10;;
14165;SDS011;7162;52.422;13.754;2023-03-05T04:46:09;0.50;;;0.50;;
14165;SDS011;7162;52.422;13.754;2023-03-05T04:48:36;0.87;;;0.63;;
14165;SDS011;7162;52.422;13.754;2023-03-05T04:51:04;1.10;;;0.60;;
14165;SDS011;7162;52.422;13.754;2023-03-05T04:53:31;1.77;;;0.60;;
14165;SDS011;7162;52.422;13.754;2023-03-05T04:55:59;6.50;;;0.67;;
14165;SDS011;7162;52.422;13.754;2023-03-05T04:58:26;3.40;;;0.80;;
14165;SDS011;7162;52.422;13.754;2023-03-05T05:00:53;0.60;;;0.60;;
14165;SDS011;7162;52.422;13.754;2023-03-05T05:03:20;16.27;;;0.80;;
14165;SDS011;7162;52.422;13.754;2023-03-05T05:05:52;2.87;;;0.70;;
14165;SDS011;7162;52.422;13.754;2023-03-05T05:08:19;0.73;;;0.60;;
14165;SDS011;7162;52.422;13.754;2023-03-05T05:10:54;6.97;;;1.10;;
14165;SDS011;7162;52.422;13.754;2023-03-05T05:13:22;2.13;;;0.60;;
14165;SDS011;7162;52.422;13.754;2023-03-05T05:15:49;1.73;;;1.00;;
14165;SDS011;7162;52.422;13.754;2023-03-05T05:18:16;1.07;;;0.53;;
14165;SDS011;7162;52.422;13.754;2023-03-05T05:20:43;1.87;;;0.70;;
14165;SDS011;7162;52.422;13.754;2023-03-05T05:23:10;0.90;;;0.57;;
14165;SDS011;7162;52.422;13.754;2023-03-05T05:25:37;1.63;;;0.70;;
14165;SDS011;7162;52.422;13.754;2023-03-05T05:28:04;1.30;;;0.60;;
14165;SDS011;7162;52.422;13.754;2023-03-05T05:30:32;6.90;;;0.70;;
14165;SDS011;7162;52.422;13.754;2023-03-05T05:32:59;0.60;;;0.60;;
14165;SDS011;7162;52.422;13.754;2023-03-05T05:35:26;5.20;;;0.60;;
14165;SDS011;7162;52.422;13.754;2023-03-05T05:37:53;1.37;;;0.77;;
14165;SDS011;7162;52.422;13.754;2023-03-05T05:40:20;7.93;;;1.07;;
14165;SDS011;7162;52.422;13.754;2023-03-05T05:42:48;0.87;;;0.70;;
14165;SDS011;7162;52.422;13.754;2023-03-05T05:45:15;0.90;;;0.70;;
14165;SDS011;7162;52.422;13.754;2023-03-05T05:47:43;1.33;;;0.80;;
14165;SDS011;7162;52.422;13.754;2023-03-05T05:50:10;0.67;;;0.63;;
14165;SDS011;7162;52.422;13.754;2023-03-05T05:52:38;1.10;;;0.80;;
14165;SDS011;7162;52.422;13.754;2023-03-05T05:55:05;1.23;;;0.57;;
14165;SDS011;7162;52.422;13.754;2023-03-05T05:57:32;0.50;;;0.50;;
14165;SDS011;7162;52.422;13.754;2023-03-05T06:00:00;0.33;;;0.33;;
14165;SDS011;7162;52.422;13.754;2023-03-05T06:02:27;7.40;;;0.60;;
14165;SDS011;7162;52.422;13.754;2023-03-05T06:04:55;0.90;;;0.60;;
14165;SDS011;7162;52.422;13.754;2023-03-05T06:07:22;0.40;;;0.40;;
14165;SDS011;7162;52.422;13.754;2023-03-05T06:09:49;0.50;;;0.50;;
14165;SDS011;7162;52.422;13.754;2023-03-05T06:12:16;2.67;;;0.63;;
14165;SDS011;7162;52.422;13.754;2023-03-05T06:14:43;5.67;;;0.80;;
14165;SDS011;7162;52.422;13.754;2023-03-05T06:17:10;3.00;;;0.90;;
14165;SDS011;7162;52.422;13.754;2023-03-05T06:19:37;6.03;;;0.83;;
14165;SDS011;7162;52.422;13.754;2023-03-05T06:22:06;3.07;;;0.70;;
14165;SDS011;7162;52.422;13.754;2023-03-05T06:24:33;3.37;;;0.70;;
14165;SDS011;7162;52.422;13.754;2023-03-05T06:27:00;0.60;;;0.60;;
14165;SDS011;7162;52.422;13.754;2023-03-05T06:29:27;8.53;;;0.90;;
14165;SDS011;7162;52.422;13.754;2023-03-05T06:31:54;3.80;;;1.03;;
14165;SDS011;7162;52.422;13.754;2023-03-05T06:34:20;8.10;;;0.90;;
14165;SDS011;7162;52.422;13.754;2023-03-05T06:36:48;5.57;;;0.83;;
14165;SDS011;7162;52.422;13.754;2023-03-05T06:39:16;1.17;;;0.60;;
14165;SDS011;7162;52.422;13.754;2023-03-05T06:41:43;1.13;;;0.50;;
14165;SDS011;7162;52.422;13.754;2023-03-05T06:44:10;4.13;;;0.67;;
14165;SDS011;7162;52.422;13.754;2023-03-05T06:46:37;0.70;;;0.60;;
14165;SDS011;7162;52.422;13.754;2023-03-05T06:49:04;9.10;;;1.33;;
14165;SDS011;7162;52.422;13.754;2023-03-05T06:51:34;10.53;;;1.50;;
14165;SDS011;7162;52.422;13.754;2023-03-05T06:54:02;1.63;;;0.87;;
14165;SDS011;7162;52.422;13.754;2023-03-05T06:56:30;1.17;;;0.83;;
14165;SDS011;7162;52.422;13.754;2023-03-05T06:58:57;4.30;;;0.80;;
14165;SDS011;7162;52.422;13.754;2023-03-05T07:01:25;1.43;;;0.90;;
14165;SDS011;7162;52.422;13.754;2023-03-05T07:03:53;1.40;;;0.70;;
14165;SDS011;7162;52.422;13.754;2023-03-05T07:06:22;6.37;;;1.03;;
14165;SDS011;7162;52.422;13.754;2023-03-05T07:08:53;2.10;;;0.70;;
14165;SDS011;7162;52.422;13.754;2023-03-05T07:11:21;5.83;;;1.10;;
14165;SDS011;7162;52.422;13.754;2023-03-05T07:13:49;1.00;;;1.00;;
14165;SDS011;7162;52.422;13.754;2023-03-05T07:16:17;1.77;;;0.90;;
14165;SDS011;7162;52.422;13.754;2023-03-05T07:18:45;1.20;;;0.90;;
14165;SDS011;7162;52.422;13.754;2023-03-05T07:21:14;0.80;;;0.80;;
14165;SDS011;7162;52.422;13.754;2023-03-05T07:23:41;1.17;;;0.90;;
14165;SDS011;7162;52.422;13.754;2023-03-05T07:26:09;0.60;;;0.60;;
14165;SDS011;7162;52.422;13.754;2023-03-05T07:28:36;2.17;;;0.77;;
14165;SDS011;7162;52.422;13.754;2023-03-05T07:31:05;6.03;;;0.80;;
14165;SDS011;7162;52.422;13.754;2023-03-05T07:33:32;2.30;;;0.63;;
14165;SDS011;7162;52.422;13.754;2023-03-05T07:36:01;0.57;;;0.57;;
14165;SDS011;7162;52.422;13.754;2023-03-05T07:38:29;3.00;;;0.93;;
14165;SDS011;7162;52.422;13.754;2023-03-05T07:40:56;1.33;;;0.70;;
14165;SDS011;7162;52.422;13.754;2023-03-05T07:43:23;3.63;;;1.30;;
14165;SDS011;7162;52.422;13.754;2023-03-05T07:45:50;4.57;;;1.07;;
14165;SDS011;7162;52.422;13.754;2023-03-05T07:48:18;2.53;;;1.10;;
14165;SDS011;7162;52.422;13.754;2023-03-05T07:50:46;0.70;;;0.60;;
14165;SDS011;7162;52.422;13.754;2023-03-05T07:53:13;3.80;;;1.53;;
14165;SDS011;7162;52.422;13.754;2023-03-05T07:55:41;0.67;;;0.60;;
14165;SDS011;7162;52.422;13.754;2023-03-05T07:58:08;3.07;;;0.70;;
14165;SDS011;7162;52.422;13.754;2023-03-05T08:00:35;3.43;;;0.70;;
14165;SDS011;7162;52.422;13.754;2023-03-05T08:03:03;0.70;;;0.70;;
14165;SDS011;7162;52.422;13.754;2023-03-05T08:05:31;1.00;;;1.00;;
14165;SDS011;7162;52.422;13.754;2023-03-05T08:07:58;1.10;;;0.80;;
14165;SDS011;7162;52.422;13.754;2023-03-05T08:10:25;2.63;;;0.60;;
14165;SDS011;7162;52.422;13.754;2023-03-05T08:12:52;1.00;;;0.70;;
14165;SDS011;7162;52.422;13.754;2023-03-05T08:15:19;1.00;;;0.80;;
14165;SDS011;7162;52.422;13.754;2023-03-05T08:17:46;1.03;;;0.80;;
14165;SDS011;7162;52.422;13.754;2023-03-05T08:20:13;6.20;;;0.80;;
14165;SDS011;7162;52.422;13.754;2023-03-05T08:22:42;0.50;;;0.50;;
14165;SDS011;7162;52.422;13.754;2023-03-05T08:25:09;2.60;;;0.50;;
14165;SDS011;7162;52.422;13.754;2023-03-05T08:27:37;1.40;;;0.73;;
14165;SDS011;7162;52.422;13.754;2023-03-05T08:30:05;0.90;;;0.60;;
14165;SDS011;7162;52.422;13.754;2023-03-05T08:32:32;0.80;;;0.80;;
14165;SDS011;7162;52.422;13.754;2023-03-05T08:34:59;0.50;;;0.50;;
14165;SDS011;7162;52.422;13.754;2023-03-05T08:37:28;0.67;;;0.63;;
14165;SDS011;7162;52.422;13.754;2023-03-05T08:39:57;0.83;;;0.67;;
14165;SDS011;7162;52.422;13.754;2023-03-05T08:42:24;1.47;;;0.50;;
14165;SDS011;7162;52.422;13.754;2023-03-05T08:44:51;0.70;;;0.53;;
14165;SDS011;7162;52.422;13.754;2023-03-05T08:47:18;1.20;;;1.00;;
14165;SDS011;7162;52.422;13.754;2023-03-05T08:49:45;0.80;;;0.50;;
14165;SDS011;7162;52.422;13.754;2023-03-05T08:52:12;3.60;;;0.80;;
14165;SDS011;7162;52.422;13.754;2023-03-05T08:54:39;3.07;;;0.77;;
14165;SDS011;7162;52.422;13.754;2023-03-05T08:57:07;0.73;;;0.60;;
14165;SDS011;7162;52.422;13.754;2023-03-05T08:59:34;0.37;;;0.37;;
14165;SDS011;7162;52.422;13.754;2023-03-05T09:02:01;3.13;;;0.60;;
14165;SDS011;7162;52.422;13.754;2023-03-05T09:04:28;0.40;;;0.40;;
14165;SDS011;7162;52.422;13.754;2023-03-05T09:06:55;3.70;;;0.70;;
14165;SDS011;7162;52.422;13.754;2023-03-05T09:09:23;3.00;;;0.70;;
14165;SDS011;7162;52.422;13.754;2023-03-05T09:11:51;1.70;;;0.80;;
14165;SDS011;7162;52.422;13.754;2023-03-05T09:14:19;1.07;;;0.60;;
14165;SDS011;7162;52.422;13.754;2023-03-05T09:16:46;1.80;;;0.70;;
14165;SDS011;7162;52.422;13.754;2023-03-05T09:19:16;0.70;;;0.67;;
14165;SDS011;7162;52.422;13.754;2023-03-05T09:21:43;7.03;;;0.80;;
14165;SDS011;7162;52.422;13.754;2023-03-05T09:24:10;2.07;;;0.70;;
14165;SDS011;7162;52.422;13.754;2023-03-05T09:26:37;1.63;;;0.80;;
14165;SDS011;7162;52.422;13.754;2023-03-05T09:29:06;1.30;;;0.63;;
14165;SDS011;7162;52.422;13.754;2023-03-05T09:31:34;2.00;;;0.50;;
14165;SDS011;7162;52.422;13.754;2023-03-05T09:34:02;0.60;;;0.60;;
14165;SDS011;7162;52.422;13.754;2023-03-05T09:36:30;3.43;;;0.80;;
14165;SDS011;7162;52.422;13.754;2023-03-05T09:38:57;0.63;;;0.63;;
14165;SDS011;7162;52.422;13.754;2023-03-05T09:41:26;1.80;;;0.70;;
14165;SDS011;7162;52.422;13.754;2023-03-05T09:43:57;2.20;;;0.70;;
14165;SDS011;7162;52.422;13.754;2023-03-05T09:46:30;0.40;;;0.40;;
14165;SDS011;7162;52.422;13.754;2023-03-05T09:49:03;0.40;;;0.40;;
14165;SDS011;7162;52.422;13.754;2023-03-05T09:51:37;0.40;;;0.40;;
14165;SDS011;7162;52.422;13.754;2023-03-05T09:54:05;2.17;;;0.80;;
14165;SDS011;7162;52.422;13.754;2023-03-05T09:56:36;0.40;;;0.40;;
14165;SDS011;7162;52.422;13.754;2023-03-05T09:59:11;0.50;;;0.50;;
14165;SDS011;7162;52.422;13.754;2023-03-05T10:01:39;0.40;;;0.40;;
14165;SDS011;7162;52.422;13.754;2023-03-05T10:04:10;0.60;;;0.60;;
14165;SDS011;7162;52.422;13.754;2023-03-05T10:06:41;1.87;;;0.90;;
14165;SDS011;7162;52.422;13.754;2023-03-05T10:09:12;1.93;;;0.50;;
14165;SDS011;7162;52.422;13.754;2023-03-05T10:11:42;2.17;;;0.60;;
14165;SDS011;7162;52.422;13.754;2023-03-05T10:14:11;0.83;;;0.83;;
14165;SDS011;7162;52.422;13.754;2023-03-05T10:16:43;1.43;;;0.93;;
14165;SDS011;7162;52.422;13.754;2023-03-05T10:19:18;0.43;;;0.43;;
14165;SDS011;7162;52.422;13.754;2023-03-05T10:21:51;0.40;;;0.40;;
14165;SDS011;7162;52.422;13.754;2023-03-05T10:24:23;1.60;;;0.80;;
14165;SDS011;7162;52.422;13.754;2023-03-05T10:26:53;1.07;;;0.43;;
14165;SDS011;7162;52.422;13.754;2023-03-05T10:29:43;0.60;;;0.60;;
14165;SDS011;7162;52.422;13.754;2023-03-05T10:32:17;2.50;;;0.80;;
14165;SDS011;7162;52.422;13.754;2023-03-05T10:34:54;5.63;;;0.87;;
14165;SDS011;7162;52.422;13.754;2023-03-05T10:37:43;0.40;;;0.40;;
14165;SDS011;7162;52.422;13.754;2023-03-05T10:40:13;1.07;;;0.63;;
14165;SDS011;7162;52.422;13.754;2023-03-05T10:42:47;1.27;;;0.50;;
14165;SDS011;7162;52.422;13.754;2023-03-05T10:45:17;0.73;;;0.73;;
14165;SDS011;7162;52.422;13.754;2023-03-05T10:47:47;0.60;;;0.50;;
14165;SDS011;7162;52.422;13.754;2023-03-05T10:50:18;2.60;;;0.60;;
14165;SDS011;7162;52.422;13.754;2023-03-05T10:52:46;0.60;;;0.60;;
14165;SDS011;7162;52.422;13.754;2023-03-05T10:55:16;0.87;;;0.60;;
14165;SDS011;7162;52.422;13.754;2023-03-05T10:57:43;0.53;;;0.53;;
14165;SDS011;7162;52.422;13.754;2023-03-05T11:00:15;5.03;;;0.60;;
14165;SDS011;7162;52.422;13.754;2023-03-05T11:02:52;3.43;;;0.73;;
14165;SDS011;7162;52.422;13.754;2023-03-05T11:05:38;0.50;;;0.40;;
14165;SDS011;7162;52.422;13.754;2023-03-05T11:08:14;1.07;;;0.60;;
14165;SDS011;7162;52.422;13.754;2023-03-05T11:10:50;0.50;;;0.50;;
14165;SDS011;7162;52.422;13.754;2023-03-05T11:13:27;0.60;;;0.60;;
14165;SDS011;7162;52.422;13.754;2023-03-05T11:15:58;1.57;;;1.07;;
14165;SDS011;7162;52.422;13.754;2023-03-05T11:18:25;8.50;;;0.77;;
14165;SDS011;7162;52.422;13.754;2023-03-05T11:21:05;1.23;;;0.53;;
14165;SDS011;7162;52.422;13.754;2023-03-05T11:23:32;2.30;;;0.90;;
14165;SDS011;7162;52.422;13.754;2023-03-05T11:26:00;3.33;;;0.60;;
14165;SDS011;7162;52.422;13.754;2023-03-05T11:28:28;0.70;;;0.70;;
14165;SDS011;7162;52.422;13.754;2023-03-05T11:30:58;1.27;;;0.67;;
14165;SDS011;7162;52.422;13.754;2023-03-05T11:33:25;3.23;;;0.73;;
14165;SDS011;7162;52.422;13.754;2023-03-05T11:35:53;1.30;;;0.90;;
14165;SDS011;7162;52.422;13.754;2023-03-05T11:38:36;1.13;;;0.63;;
14165;SDS011;7162;52.422;13.754;2023-03-05T11:41:09;0.80;;;0.80;;
14165;SDS011;7162;52.422;13.754;2023-03-05T11:43:37;0.63;;;0.53;;
14165;SDS011;7162;52.422;13.754;2023-03-05T11:46:05;2.40;;;0.80;;
14165;SDS011;7162;52.422;13.754;2023-03-05T11:48:34;1.37;;;0.70;;
14165;SDS011;7162;52.422;13.754;2023-03-05T11:51:04;1.83;;;0.47;;
14165;SDS011;7162;52.422;13.754;2023-03-05T11:53:33;1.07;;;0.70;;
14165;SDS011;7162;52.422;13.754;2023-03-05T11:56:04;0.83;;;0.57;;
14165;SDS011;7162;52.422;13.754;2023-03-05T11:58:38;7.83;;;0.80;;
14165;SDS011;7162;52.422;13.754;2023-03-05T12:01:07;1.63;;;0.60;;
14165;SDS011;7162;52.422;13.754;2023-03-05T12:03:39;0.90;;;0.50;;
14165;SDS011;7162;52.422;13.754;2023-03-05T12:06:08;1.83;;;0.60;;
14165;SDS011;7162;52.422;13.754;2023-03-05T12:08:36;0.60;;;0.60;;
14165;SDS011;7162;52.422;13.754;2023-03-05T12:11:06;2.70;;;0.70;;
14165;SDS011;7162;52.422;13.754;2023-03-05T12:13:39;0.60;;;0.50;;
14165;SDS011;7162;52.422;13.754;2023-03-05T12:16:10;0.50;;;0.50;;
14165;SDS011;7162;52.422;13.754;2023-03-05T12:18:41;0.60;;;0.60;;
14165;SDS011;7162;52.422;13.754;2023-03-05T12:21:13;0.93;;;0.53;;
14165;SDS011;7162;52.422;13.754;2023-03-05T12:23:45;0.90;;;0.60;;
14165;SDS011;7162;52.422;13.754;2023-03-05T12:26:14;2.90;;;1.47;;
14165;SDS011;7162;52.422;13.754;2023-03-05T12:36:54;1.37;;;1.27;;
14165;SDS011;7162;52.422;13.754;2023-03-05T12:39:41;1.43;;;0.70;;
14165;SDS011;7162;52.422;13.754;2023-03-05T12:47:33;1.07;;;0.87;;
14165;SDS011;7162;52.422;13.754;2023-03-05T12:50:00;2.10;;;0.80;;
14165;SDS011;7162;52.422;13.754;2023-03-05T12:52:28;1.47;;;0.70;;
14165;SDS011;7162;52.422;13.754;2023-03-05T12:54:58;4.30;;;0.60;;
14165;SDS011;7162;52.422;13.754;2023-03-05T12:57:27;3.23;;;0.80;;
14165;SDS011;7162;52.422;13.754;2023-03-05T12:59:57;5.10;;;0.90;;
14165;SDS011;7162;52.422;13.754;2023-03-05T13:02:26;3.37;;;0.77;;
14165;SDS011;7162;52.422;13.754;2023-03-05T13:04:58;0.90;;;0.77;;
14165;SDS011;7162;52.422;13.754;2023-03-05T13:07:26;2.43;;;1.00;;
14165;SDS011;7162;52.422;13.754;2023-03-05T13:09:54;1.70;;;0.83;;
14165;SDS011;7162;52.422;13.754;2023-03-05T13:12:22;0.90;;;0.70;;
14165;SDS011;7162;52.422;13.754;2023-03-05T13:14:54;0.93;;;0.67;;
14165;SDS011;7162;52.422;13.754;2023-03-05T13:17:24;4.00;;;0.90;;
14165;SDS011;7162;52.422;13.754;2023-03-05T13:19:52;1.47;;;0.70;;
14165;SDS011;7162;52.422;13.754;2023-03-05T13:22:21;1.10;;;0.70;;
14165;SDS011;7162;52.422;13.754;2023-03-05T13:24:48;1.80;;;0.60;;
14165;SDS011;7162;52.422;13.754;2023-03-05T13:27:19;0.57;;;0.57;;
14165;SDS011;7162;52.422;13.754;2023-03-05T13:29:51;0.70;;;0.53;;
14165;SDS011;7162;52.422;13.754;2023-03-05T13:32:20;1.27;;;0.80;;
14165;SDS011;7162;52.422;13.754;2023-03-05T13:34:49;0.73;;;0.70;;
14165;SDS011;7162;52.422;13.754;2023-03-05T13:37:17;0.80;;;0.70;;
14165;SDS011;7162;52.422;13.754;2023-03-05T13:39:48;2.23;;;0.87;;
14165;SDS011;7162;52.422;13.754;2023-03-05T13:42:16;2.20;;;0.80;;
14165;SDS011;7162;52.422;13.754;2023-03-05T13:44:51;3.23;;;0.70;;
14165;SDS011;7162;52.422;13.754;2023-03-05T13:47:19;1.70;;;1.00;;
14165;SDS011;7162;52.422;13.754;2023-03-05T13:49:53;0.93;;;0.70;;
14165;SDS011;7162;52.422;13.754;2023-03-05T13:52:24;0.70;;;0.70;;
14165;SDS011;7162;52.422;13.754;2023-03-05T13:54:52;1.20;;;0.87;;
14165;SDS011;7162;52.422;13.754;2023-03-05T13:57:36;2.87;;;0.90;;
14165;SDS011;7162;52.422;13.754;2023-03-05T14:00:05;5.43;;;0.70;;
14165;SDS011;7162;52.422;13.754;2023-03-05T14:02:33;1.00;;;0.50;;
14165;SDS011;7162;52.422;13.754;2023-03-05T14:05:00;0.70;;;0.70;;
14165;SDS011;7162;52.422;13.754;2023-03-05T14:07:29;6.30;;;0.70;;
14165;SDS011;7162;52.422;13.754;2023-03-05T14:09:58;0.70;;;0.50;;
14165;SDS011;7162;52.422;13.754;2023-03-05T14:12:27;0.50;;;0.50;;
14165;SDS011;7162;52.422;13.754;2023-03-05T14:14:56;0.63;;;0.50;;
14165;SDS011;7162;52.422;13.754;2023-03-05T14:17:29;2.50;;;0.80;;
14165;SDS011;7162;52.422;13.754;2023-03-05T14:20:13;2.20;;;0.80;;
14165;SDS011;7162;52.422;13.754;2023-03-05T14:22:44;2.77;;;0.50;;
14165;SDS011;7162;52.422;13.754;2023-03-05T14:25:26;0.93;;;0.50;;
14165;SDS011;7162;52.422;13.754;2023-03-05T14:27:53;0.70;;;0.70;;
14165;SDS011;7162;52.422;13.754;2023-03-05T14:30:21;0.70;;;0.70;;
14165;SDS011;7162;52.422;13.754;2023-03-05T14:32:49;1.57;;;1.00;;
14165;SDS011;7162;52.422;13.754;2023-03-05T14:35:17;11.33;;;0.77;;
14165;SDS011;7162;52.422;13.754;2023-03-05T14:37:46;2.20;;;1.10;;
14165;SDS011;7162;52.422;13.754;2023-03-05T14:40:18;0.67;;;0.67;;
14165;SDS011;7162;52.422;13.754;2023-03-05T14:42:53;3.03;;;0.80;;
14165;SDS011;7162;52.422;13.754;2023-03-05T14:45:22;1.27;;;0.60;;
14165;SDS011;7162;52.422;13.754;2023-03-05T14:47:49;2.70;;;1.30;;
14165;SDS011;7162;52.422;13.754;2023-03-05T14:50:17;0.97;;;0.60;;
14165;SDS011;7162;52.422;13.754;2023-03-05T14:52:45;0.70;;;0.70;;
14165;SDS011;7162;52.422;13.754;2023-03-05T14:55:13;3.60;;;0.60;;
14165;SDS011;7162;52.422;13.754;2023-03-05T14:57:40;1.63;;;0.50;;
14165;SDS011;7162;52.422;13.754;2023-03-05T15:00:13;2.63;;;0.57;;
14165;SDS011;7162;52.422;13.754;2023-03-05T15:02:41;2.60;;;0.70;;
14165;SDS011;7162;52.422;13.754;2023-03-05T15:05:08;0.60;;;0.60;;
14165;SDS011;7162;52.422;13.754;2023-03-05T15:07:35;6.20;;;0.60;;
14165;SDS011;7162;52.422;13.754;2023-03-05T15:10:02;1.07;;;0.70;;
14165;SDS011;7162;52.422;13.754;2023-03-05T15:12:30;1.70;;;1.00;;